Time;durP1;ratioP1;P1;durP2;ratioP2;P2;SDS_P1;SDS_P2;PMS_P1;PMS_P2;Temp;Humidity;BMP_temperature;BMP_pressure;BME280_temperature;BME280_humidity;BME280_pressure;Samples;Min_cycle;Max_cycle;Signal;HPM_P1;HPM_P2
2021/08/01 00:01:55;;;;;;;1.80;1.70;;;19.20;99.90;;;;;;5076230;28;20447;-80
2021/08/01 00:04:22;;;;;;;1.93;1.67;;;19.20;99.90;;;;;;5059986;28;20498;-80
2021/08/01 00:06:48;;;;;;;1.93;1.83;;;19.20;99.90;;;;;;5075928;28;20972;-80
2021/08/01 00:09:17;;;;;;;4.67;2.20;;;19.20;99.90;;;;;;5075870;28;20478;-80
2021/08/01 00:11:43;;;;;;;1.80;1.70;;;19.10;99.90;;;;;;5080435;28;20869;-80
2021/08/01 00:14:10;;;;;;;3.70;1.70;;;19.10;99.90;;;;;;5077341;28;20483;-80
2021/08/01 00:16:36;;;;;;;1.97;1.60;;;19.00;99.90;;;;;;5076045;28;20448;-80
2021/08/01 00:19:04;;;;;;;2.10;1.83;;;19.00;99.90;;;;;;5075938;28;20905;-80
2021/08/01 00:21:31;;;;;;;3.10;2.13;;;19.00;99.90;;;;;;5075828;28;20537;-80
2021/08/01 00:23:58;;;;;;;2.90;2.00;;;19.00;99.90;;;;;;5075583;28;20505;-80
2021/08/01 00:26:24;;;;;;;2.43;1.80;;;19.00;99.90;;;;;;5075165;28;20578;-80
2021/08/01 00:28:51;;;;;;;3.10;2.20;;;19.00;99.90;;;;;;5075701;28;20858;-80
2021/08/01 00:31:17;;;;;;;2.67;1.67;;;18.90;99.90;;;;;;5075563;28;20538;-80
2021/08/01 00:33:44;;;;;;;2.47;2.13;;;19.00;99.90;;;;;;5075411;28;20550;-80
2021/08/01 00:36:11;;;;;;;1.80;1.70;;;18.90;99.90;;;;;;5075468;28;20877;-80
2021/08/01 00:38:38;;;;;;;2.60;1.90;;;18.90;99.90;;;;;;5075448;28;20534;-80
2021/08/01 00:41:05;;;;;;;2.20;1.73;;;18.90;99.90;;;;;;5075093;28;20970;-80
2021/08/01 00:43:32;;;;;;;1.90;1.80;;;18.80;99.90;;;;;;5075466;28;20529;-80
2021/08/01 00:45:59;;;;;;;3.00;1.83;;;18.80;99.90;;;;;;5075296;28;20562;-80
2021/08/01 00:48:26;;;;;;;2.33;1.80;;;18.80;99.90;;;;;;5075351;28;20554;-79
2021/08/01 00:50:53;;;;;;;2.63;1.53;;;18.70;99.90;;;;;;5075175;28;20450;-79
2021/08/01 00:53:21;;;;;;;2.30;1.70;;;18.70;99.90;;;;;;5074947;28;20538;-80
2021/08/01 00:55:48;;;;;;;3.17;1.77;;;18.70;99.90;;;;;;5075109;28;21010;-79
2021/08/01 00:58:14;;;;;;;2.10;1.90;;;18.70;99.90;;;;;;5075042;28;20493;-79
2021/08/01 01:01:01;;;;;;;1.70;1.60;;;18.70;99.90;;;;;;5074990;28;21002;-80
2021/08/01 01:03:36;;;;;;;2.10;1.73;;;18.70;99.90;;;;;;5074941;28;20524;-80
2021/08/01 01:06:09;;;;;;;4.73;2.90;;;18.70;99.90;;;;;;5073428;28;20478;-81
2021/08/01 01:08:43;;;;;;;2.40;2.20;;;18.70;99.90;;;;;;5075002;28;20482;-81
2021/08/01 01:11:12;;;;;;;2.73;1.93;;;18.60;99.90;;;;;;5074719;28;20522;-81
2021/08/01 01:13:48;;;;;;;1.80;1.70;;;18.60;99.90;;;;;;5080468;28;20504;-81
2021/08/01 01:16:15;;;;;;;3.23;2.40;;;18.60;99.90;;;;;;5074560;28;20449;-80
2021/08/01 01:18:47;;;;;;;2.60;1.90;;;18.50;99.90;;;;;;5074531;28;20471;-79
2021/08/01 01:21:24;;;;;;;2.43;2.23;;;18.50;99.90;;;;;;5074711;28;20891;-79
2021/08/01 01:23:58;;;;;;;2.03;1.93;;;18.50;99.90;;;;;;5074665;28;20530;-79
2021/08/01 01:26:30;;;;;;;3.93;2.50;;;18.50;99.90;;;;;;5074518;28;20886;-79
2021/08/01 01:29:05;;;;;;;5.93;2.30;;;18.50;99.90;;;;;;5074207;28;21025;-79
2021/08/01 01:31:38;;;;;;;1.93;1.80;;;18.50;99.90;;;;;;5074608;28;20553;-79
2021/08/01 01:34:11;;;;;;;2.30;2.10;;;18.50;99.90;;;;;;5074301;28;20550;-81
2021/08/01 01:36:42;;;;;;;2.73;1.80;;;18.50;99.90;;;;;;5074432;28;20475;-81
2021/08/01 01:39:09;;;;;;;2.60;2.10;;;18.50;99.90;;;;;;5074076;28;20538;-83
2021/08/01 01:41:38;;;;;;;2.40;2.07;;;18.50;99.90;;;;;;5074386;28;20451;-83
2021/08/01 01:44:06;;;;;;;2.43;2.23;;;18.50;99.90;;;;;;5074036;28;20443;-83
2021/08/01 01:46:34;;;;;;;2.40;2.20;;;18.40;99.90;;;;;;5074227;28;20471;-83
2021/08/01 01:49:02;;;;;;;2.27;2.17;;;18.40;99.90;;;;;;5074037;28;20535;-82
2021/08/01 01:51:30;;;;;;;2.87;2.40;;;18.40;99.90;;;;;;5074036;28;20475;-83
2021/08/01 01:53:58;;;;;;;3.00;2.80;;;18.40;99.90;;;;;;5073615;28;20502;-82
2021/08/01 01:56:26;;;;;;;3.30;2.30;;;18.40;99.90;;;;;;5073802;28;20507;-83
2021/08/01 01:58:54;;;;;;;3.77;3.50;;;18.40;99.90;;;;;;5073871;28;20475;-82
2021/08/01 02:01:22;;;;;;;2.10;2.00;;;18.40;99.90;;;;;;5073980;28;20430;-82
2021/08/01 02:03:50;;;;;;;4.93;2.00;;;18.30;99.90;;;;;;5073729;28;20542;-82
2021/08/01 02:06:17;;;;;;;2.30;2.10;;;18.30;99.90;;;;;;5073452;28;20444;-83
2021/08/01 02:08:54;;;;;;;2.70;2.40;;;18.30;99.90;;;;;;5073524;28;20927;-83
2021/08/01 02:11:24;;;;;;;2.50;2.30;;;18.30;99.90;;;;;;5073658;28;20799;-83
2021/08/01 02:13:58;;;;;;;2.23;2.03;;;18.30;99.90;;;;;;5073639;28;20536;-82
2021/08/01 02:16:29;;;;;;;8.03;2.03;;;18.20;99.90;;;;;;5057719;28;20491;-82
2021/08/01 02:18:59;;;;;;;2.50;2.00;;;18.20;99.90;;;;;;5072914;28;20490;-82
2021/08/01 02:21:26;;;;;;;2.40;2.20;;;18.20;99.90;;;;;;5071827;28;20447;-84
2021/08/01 02:23:54;;;;;;;2.83;2.00;;;18.20;99.90;;;;;;5073413;28;20451;-84
2021/08/01 02:26:24;;;;;;;8.00;2.33;;;18.10;99.90;;;;;;5073570;28;20479;-83
2021/08/01 02:28:52;;;;;;;3.07;2.50;;;18.10;99.90;;;;;;5073682;28;20448;-84
2021/08/01 02:31:19;;;;;;;2.80;2.50;;;18.10;99.90;;;;;;5073211;28;20546;-82
2021/08/01 02:33:47;;;;;;;2.53;2.23;;;18.10;99.90;;;;;;5073695;28;20534;-83
2021/08/01 02:36:15;;;;;;;2.73;2.30;;;18.10;99.90;;;;;;5071701;28;20566;-82
2021/08/01 02:38:45;;;;;;;3.50;2.43;;;18.10;99.90;;;;;;5073538;28;20533;-82
2021/08/01 02:41:18;;;;;;;2.47;2.27;;;18.10;99.90;;;;;;5073435;28;20569;-82
2021/08/01 02:43:49;;;;;;;2.53;2.33;;;18.00;99.90;;;;;;5073430;28;20482;-83
2021/08/01 02:46:19;;;;;;;2.10;2.00;;;18.00;99.90;;;;;;5073681;28;21013;-81
2021/08/01 02:48:48;;;;;;;2.67;2.47;;;18.00;99.90;;;;;;5073547;28;20483;-82
2021/08/01 02:51:17;;;;;;;2.10;2.00;;;18.00;99.90;;;;;;5073463;28;20531;-82
2021/08/01 02:53:47;;;;;;;4.13;2.40;;;18.00;99.90;;;;;;5073343;28;20543;-81
2021/08/01 02:56:16;;;;;;;2.43;2.23;;;18.00;99.90;;;;;;5073147;28;20526;-82
2021/08/01 02:58:43;;;;;;;2.83;2.57;;;18.00;99.90;;;;;;5073228;28;20977;-82
2021/08/01 03:01:12;;;;;;;4.83;2.10;;;18.00;99.90;;;;;;5073307;28;20447;-82
2021/08/01 03:03:41;;;;;;;2.93;2.73;;;18.00;99.90;;;;;;5073322;28;20490;-82
2021/08/01 03:06:09;;;;;;;2.60;2.40;;;18.00;99.90;;;;;;5073163;28;21038;-81
2021/08/01 03:08:36;;;;;;;2.40;2.30;;;18.00;99.90;;;;;;5073144;28;20532;-81
2021/08/01 03:11:03;;;;;;;2.80;2.70;;;18.00;99.90;;;;;;5073302;28;20479;-81
2021/08/01 03:13:29;;;;;;;2.90;2.70;;;17.90;99.90;;;;;;5092649;28;20530;-81
2021/08/01 03:15:56;;;;;;;2.70;2.50;;;17.90;99.90;;;;;;5093365;28;20510;-81
2021/08/01 03:18:23;;;;;;;2.80;2.13;;;17.90;99.90;;;;;;5093350;28;20550;-81
2021/08/01 03:20:50;;;;;;;2.20;2.10;;;17.90;99.90;;;;;;5093121;28;20537;-82
2021/08/01 03:23:17;;;;;;;2.53;2.33;;;17.90;99.90;;;;;;5093274;28;20541;-82
2021/08/01 03:25:43;;;;;;;3.23;2.90;;;17.90;99.90;;;;;;5093412;28;20477;-83
2021/08/01 03:28:10;;;;;;;3.90;2.57;;;17.90;99.90;;;;;;5092626;28;20941;-83
2021/08/01 03:30:36;;;;;;;2.57;2.40;;;17.80;99.90;;;;;;5092520;28;20537;-83
2021/08/01 03:33:03;;;;;;;3.00;2.67;;;17.80;99.90;;;;;;5092879;28;20959;-83
2021/08/01 03:35:30;;;;;;;2.97;2.67;;;17.80;99.90;;;;;;5092911;28;20568;-83
2021/08/01 03:37:57;;;;;;;2.43;2.33;;;17.80;99.90;;;;;;5093111;28;20478;-84
2021/08/01 03:40:24;;;;;;;3.10;2.90;;;17.90;99.90;;;;;;5093115;28;20446;-84
2021/08/01 03:42:51;;;;;;;5.63;2.57;;;17.90;99.90;;;;;;5092998;28;20442;-85
2021/08/01 03:45:17;;;;;;;2.60;2.50;;;17.90;99.90;;;;;;5092941;28;20537;-83
2021/08/01 03:47:44;;;;;;;3.20;2.20;;;17.90;99.90;;;;;;5092789;28;20478;-82
2021/08/01 03:50:10;;;;;;;2.40;2.30;;;17.90;99.90;;;;;;5092814;28;20450;-82
2021/08/01 03:52:38;;;;;;;2.80;2.70;;;17.90;99.90;;;;;;5092945;28;20538;-82
2021/08/01 03:55:05;;;;;;;3.10;2.90;;;17.90;99.90;;;;;;5093103;28;20573;-83
2021/08/01 03:57:32;;;;;;;3.13;2.93;;;17.90;99.90;;;;;;5092513;28;20513;-83
2021/08/01 03:59:58;;;;;;;3.23;3.03;;;17.90;99.90;;;;;;5092777;28;20451;-83
2021/08/01 04:02:25;;;;;;;3.10;2.90;;;17.90;99.90;;;;;;5092674;28;20867;-82
2021/08/01 04:04:53;;;;;;;2.80;2.60;;;18.00;99.90;;;;;;5092602;28;20537;-83
2021/08/01 04:07:19;;;;;;;3.40;3.10;;;18.00;99.90;;;;;;5092710;28;20537;-83
2021/08/01 04:09:47;;;;;;;3.03;2.83;;;18.10;99.90;;;;;;5092810;28;20454;-83
2021/08/01 04:12:14;;;;;;;7.60;2.77;;;18.10;99.90;;;;;;5083593;28;20532;-83
2021/08/01 04:14:40;;;;;;;3.00;2.80;;;18.20;99.90;;;;;;5072423;28;20819;-82
2021/08/01 04:17:09;;;;;;;2.60;2.50;;;18.20;99.90;;;;;;5072233;28;20538;-82
2021/08/01 04:19:35;;;;;;;3.73;2.40;;;18.30;99.90;;;;;;5072283;28;20447;-82
2021/08/01 04:22:02;;;;;;;3.37;3.00;;;18.40;99.90;;;;;;5072377;28;20443;-82
2021/08/01 04:24:29;;;;;;;5.23;2.53;;;18.40;99.90;;;;;;5072446;28;20542;-81
2021/08/01 04:26:57;;;;;;;2.57;2.47;;;18.40;99.90;;;;;;5072237;28;20574;-81
2021/08/01 04:29:24;;;;;;;2.70;2.50;;;18.50;99.90;;;;;;5072289;28;20538;-81
2021/08/01 04:31:50;;;;;;;2.83;2.63;;;18.50;99.90;;;;;;5072017;28;20451;-82
2021/08/01 04:34:17;;;;;;;3.07;2.87;;;18.60;99.90;;;;;;5072418;28;20474;-81
2021/08/01 04:36:43;;;;;;;2.87;2.67;;;18.60;99.90;;;;;;5072125;28;20540;-82
2021/08/01 04:39:10;;;;;;;3.73;3.50;;;18.70;99.90;;;;;;5072312;28;20452;-82
2021/08/01 04:41:36;;;;;;;2.60;2.40;;;18.70;99.90;;;;;;5074852;28;20490;-83
2021/08/01 04:44:05;;;;;;;7.33;2.80;;;18.80;99.90;;;;;;5075542;28;20545;-81
2021/08/01 04:46:31;;;;;;;2.47;2.37;;;18.90;99.90;;;;;;5075651;28;20479;-81
2021/08/01 04:48:58;;;;;;;3.10;2.80;;;18.90;99.90;;;;;;5075733;28;20460;-81
2021/08/01 04:51:24;;;;;;;2.57;2.47;;;19.00;99.90;;;;;;5075805;28;20483;-82
2021/08/01 04:53:51;;;;;;;3.43;3.23;;;19.10;99.90;;;;;;5075564;28;20483;-84
2021/08/01 04:56:17;;;;;;;3.30;2.43;;;19.10;99.90;;;;;;5075313;28;20773;-83
2021/08/01 04:58:44;;;;;;;2.60;2.40;;;19.20;99.90;;;;;;5075348;28;20443;-83
2021/08/01 05:01:13;;;;;;;2.67;2.47;;;19.30;99.90;;;;;;5075383;28;20483;-82
2021/08/01 05:03:40;;;;;;;6.23;3.90;;;19.40;99.90;;;;;;5075446;28;20477;-83
2021/08/01 05:06:06;;;;;;;2.43;2.33;;;19.40;99.90;;;;;;5075471;28;20553;-82
2021/08/01 05:08:33;;;;;;;2.80;2.60;;;19.50;99.90;;;;;;5075308;28;20542;-82
2021/08/01 05:11:00;;;;;;;2.90;2.70;;;19.60;99.90;;;;;;5075322;28;20550;-82
2021/08/01 05:13:26;;;;;;;3.37;2.70;;;19.60;99.90;;;;;;5094181;28;20465;-82
2021/08/01 05:15:53;;;;;;;2.67;2.47;;;19.70;99.90;;;;;;5095583;28;20889;-82
2021/08/01 05:18:21;;;;;;;3.00;2.80;;;19.80;99.90;;;;;;5095506;28;20537;-82
2021/08/01 05:20:48;;;;;;;2.70;2.50;;;19.90;99.90;;;;;;5095420;28;20478;-82
2021/08/01 05:23:15;;;;;;;3.20;2.80;;;20.00;99.90;;;;;;5095252;28;20563;-82
2021/08/01 05:25:41;;;;;;;3.00;2.53;;;20.10;99.90;;;;;;5095219;28;20450;-83
2021/08/01 05:28:08;;;;;;;4.97;2.40;;;20.10;99.90;;;;;;5095439;28;20446;-83
2021/08/01 05:30:34;;;;;;;2.97;2.57;;;20.20;99.90;;;;;;5095279;28;20501;-82
2021/08/01 05:33:05;;;;;;;2.40;2.17;;;20.30;99.90;;;;;;5095154;28;20896;-82
2021/08/01 05:35:33;;;;;;;2.57;2.37;;;20.40;99.90;;;;;;5095081;28;20509;-82
2021/08/01 05:37:59;;;;;;;4.00;2.70;;;20.40;99.90;;;;;;5094973;28;20486;-83
2021/08/01 05:40:26;;;;;;;3.37;2.50;;;20.50;99.90;;;;;;5094937;28;20541;-84
2021/08/01 05:42:52;;;;;;;2.70;2.50;;;20.60;99.90;;;;;;5094704;28;20537;-84
2021/08/01 05:45:19;;;;;;;2.77;2.57;;;20.60;99.90;;;;;;5095047;28;20855;-84
2021/08/01 05:47:45;;;;;;;2.80;2.60;;;20.70;99.90;;;;;;5094844;28;20850;-84
2021/08/01 05:50:12;;;;;;;2.73;2.53;;;20.80;99.90;;;;;;5094988;28;20450;-81
2021/08/01 05:52:40;;;;;;;3.23;3.00;;;20.90;99.90;;;;;;5093947;28;20454;-81
2021/08/01 05:55:10;;;;;;;2.53;2.33;;;20.90;99.90;;;;;;5094519;28;20964;-81
2021/08/01 05:57:36;;;;;;;4.50;2.40;;;21.00;99.90;;;;;;5094306;28;20561;-84
2021/08/01 06:00:04;;;;;;;2.67;2.47;;;21.10;99.90;;;;;;5094756;28;20876;-84
2021/08/01 06:02:30;;;;;;;2.43;2.33;;;21.20;99.90;;;;;;5094646;28;20545;-84
2021/08/01 06:04:57;;;;;;;3.00;2.70;;;21.20;99.90;;;;;;5094408;28;20466;-84
2021/08/01 06:07:24;;;;;;;2.60;2.40;;;21.30;99.90;;;;;;5094445;28;20489;-84
2021/08/01 06:09:52;;;;;;;2.90;2.47;;;21.30;99.90;;;;;;5094267;28;20497;-84
2021/08/01 06:12:18;;;;;;;2.60;2.40;;;21.40;99.90;;;;;;5084937;28;20530;-82
2021/08/01 06:14:49;;;;;;;4.23;2.20;;;21.50;99.90;;;;;;5074196;28;20885;-82
2021/08/01 06:17:15;;;;;;;3.57;3.23;;;21.50;99.90;;;;;;5074083;28;20487;-82
2021/08/01 06:19:42;;;;;;;3.10;2.60;;;21.50;99.90;;;;;;5073859;28;20511;-82
2021/08/01 06:22:09;;;;;;;2.47;2.30;;;21.60;99.90;;;;;;5073817;28;20497;-82
2021/08/01 06:24:35;;;;;;;2.37;2.17;;;21.70;99.90;;;;;;5073734;28;20455;-82
2021/08/01 06:27:05;;;;;;;3.07;2.17;;;21.70;99.90;;;;;;5073946;28;20859;-82
2021/08/01 06:29:31;;;;;;;2.40;2.20;;;21.80;99.90;;;;;;5073846;28;20454;-82
2021/08/01 06:31:58;;;;;;;3.13;2.93;;;22.00;99.90;;;;;;5073603;28;20538;-84
2021/08/01 06:34:24;;;;;;;2.40;2.20;;;22.10;99.90;;;;;;5073650;28;20475;-84
2021/08/01 06:36:51;;;;;;;3.63;2.80;;;22.30;99.90;;;;;;5074122;28;20479;-84
2021/08/01 06:39:18;;;;;;;2.67;2.57;;;22.40;99.90;;;;;;5073723;28;21005;-84
2021/08/01 06:41:44;;;;;;;2.40;2.20;;;22.50;99.90;;;;;;5073743;28;20545;-83
2021/08/01 06:44:12;;;;;;;3.40;2.77;;;22.60;99.90;;;;;;5073540;28;20479;-83
2021/08/01 06:46:38;;;;;;;2.67;2.23;;;22.70;99.90;;;;;;5073457;28;20954;-83
2021/08/01 06:49:05;;;;;;;3.20;2.63;;;22.80;99.90;;;;;;5073328;28;20534;-83
2021/08/01 06:51:31;;;;;;;1.90;1.80;;;22.80;99.90;;;;;;5073266;28;20886;-84
2021/08/01 06:53:58;;;;;;;2.10;1.90;;;22.80;99.90;;;;;;5073358;28;20451;-83
2021/08/01 06:56:24;;;;;;;2.27;2.17;;;22.80;99.90;;;;;;5073112;28;20950;-83
2021/08/01 06:58:51;;;;;;;3.07;2.87;;;22.80;99.90;;;;;;5073129;28;20542;-82
2021/08/01 07:01:19;;;;;;;3.20;2.53;;;22.80;99.90;;;;;;5073281;28;20542;-83
2021/08/01 07:03:45;;;;;;;2.10;1.90;;;22.80;99.90;;;;;;5072980;28;20543;-84
2021/08/01 07:06:12;;;;;;;2.47;2.27;;;22.90;99.90;;;;;;5073358;28;20530;-84
2021/08/01 07:08:39;;;;;;;2.00;1.90;;;23.00;99.90;;;;;;5073139;28;20513;-84
2021/08/01 07:11:06;;;;;;;2.03;1.73;;;23.10;99.90;;;;;;5073254;28;20920;-84
2021/08/01 07:13:32;;;;;;;1.93;1.70;;;23.20;99.90;;;;;;5092871;28;20527;-84
2021/08/01 07:16:02;;;;;;;2.17;2.07;;;23.40;99.90;;;;;;5093224;28;20563;-84
2021/08/01 07:18:30;;;;;;;1.73;1.63;;;23.50;99.90;;;;;;5093124;28;20478;-84
2021/08/01 07:20:57;;;;;;;1.70;1.60;;;23.50;99.90;;;;;;5093315;28;20517;-85
2021/08/01 07:23:24;;;;;;;1.60;1.47;;;23.50;99.90;;;;;;5093287;28;20507;-85
2021/08/01 07:25:51;;;;;;;2.43;2.10;;;23.60;99.90;;;;;;5093181;28;20569;-83
2021/08/01 07:28:17;;;;;;;1.70;1.60;;;23.60;99.90;;;;;;5093066;28;20540;-83
2021/08/01 07:30:44;;;;;;;2.37;2.13;;;23.70;99.90;;;;;;5092977;28;20541;-84
2021/08/01 07:33:10;;;;;;;2.17;2.07;;;23.90;99.90;;;;;;5092885;28;20533;-87
2021/08/01 07:35:38;;;;;;;2.03;1.90;;;23.90;99.90;;;;;;5092953;28;20554;-81
2021/08/01 07:38:05;;;;;;;1.90;1.70;;;24.00;99.90;;;;;;5090408;28;20474;-81
2021/08/01 07:40:31;;;;;;;2.17;1.90;;;24.10;99.90;;;;;;5076112;28;20533;-83
2021/08/01 07:43:00;;;;;;;1.90;1.80;;;24.10;99.90;;;;;;5069928;28;20470;-82
2021/08/01 07:45:30;;;;;;;2.13;2.03;;;24.10;99.90;;;;;;5071970;28;20577;-82
2021/08/01 07:47:57;;;;;;;1.80;1.70;;;24.20;99.90;;;;;;5075077;28;20475;-82
2021/08/01 07:50:24;;;;;;;1.73;1.63;;;24.20;99.90;;;;;;5083015;28;20530;-83
2021/08/01 07:52:52;;;;;;;2.23;2.03;;;24.40;99.90;;;;;;5081254;28;20467;-82
2021/08/01 07:55:19;;;;;;;2.13;1.60;;;24.60;99.90;;;;;;5082145;28;20468;-82
2021/08/01 07:57:45;;;;;;;1.83;1.73;;;24.70;99.90;;;;;;5077760;28;20562;-82
2021/08/01 08:00:14;;;;;;;1.60;1.50;;;24.90;99.90;;;;;;5072313;28;20527;-82
2021/08/01 08:02:40;;;;;;;2.80;1.63;;;25.10;99.90;;;;;;5072665;28;20861;-82
2021/08/01 08:05:08;;;;;;;2.37;2.20;;;25.30;99.90;;;;;;5072603;28;20450;-83
2021/08/01 08:07:34;;;;;;;2.40;2.20;;;25.50;99.90;;;;;;5072483;28;20447;-83
2021/08/01 08:10:03;;;;;;;3.00;1.90;;;25.70;99.90;;;;;;5072415;28;20453;-83
2021/08/01 08:12:29;;;;;;;1.97;1.70;;;26.00;99.90;;;;;;5083393;28;20537;-82
2021/08/01 08:14:56;;;;;;;1.73;1.63;;;26.00;99.90;;;;;;5092103;28;20541;-82
2021/08/01 08:17:23;;;;;;;1.93;1.80;;;26.00;99.90;;;;;;5096534;28;20478;-82
2021/08/01 08:19:49;;;;;;;1.60;1.50;;;26.00;99.90;;;;;;5096515;28;20874;-82
2021/08/01 08:22:16;;;;;;;2.23;2.13;;;26.00;99.90;;;;;;5090855;28;20507;-82
2021/08/01 08:24:42;;;;;;;1.80;1.70;;;26.00;99.90;;;;;;5086713;28;20533;-82
2021/08/01 08:27:10;;;;;;;2.00;1.70;;;26.00;99.90;;;;;;5084866;28;20479;-83
2021/08/01 08:29:37;;;;;;;1.90;1.80;;;25.90;99.90;;;;;;5085124;28;20482;-82
2021/08/01 08:32:04;;;;;;;3.10;1.87;;;25.80;99.90;;;;;;5086614;28;20442;-81
2021/08/01 08:34:30;;;;;;;2.00;1.90;;;25.60;99.90;;;;;;5085044;28;20486;-81
2021/08/01 08:37:01;;;;;;;1.90;1.80;;;25.50;99.90;;;;;;5081382;28;20896;-81
2021/08/01 08:39:28;;;;;;;2.60;1.70;;;25.40;99.90;;;;;;5091200;28;20451;-81
2021/08/01 08:41:57;;;;;;;2.30;2.00;;;25.40;99.90;;;;;;5086253;28;20470;-81
2021/08/01 08:44:24;;;;;;;2.43;1.50;;;25.50;99.90;;;;;;5085106;28;20530;-82
2021/08/01 08:46:53;;;;;;;1.60;1.50;;;25.60;99.90;;;;;;5095952;28;20504;-82
2021/08/01 08:49:21;;;;;;;4.03;1.70;;;25.70;99.90;;;;;;5095949;28;20537;-82
2021/08/01 08:51:51;;;;;;;2.90;1.73;;;25.80;99.90;;;;;;5095781;28;20956;-82
2021/08/01 08:54:20;;;;;;;2.43;2.10;;;25.80;99.90;;;;;;5095735;28;20497;-82
2021/08/01 08:56:48;;;;;;;3.23;2.00;;;25.80;99.90;;;;;;5095425;28;20486;-82
2021/08/01 08:59:18;;;;;;;3.13;1.73;;;25.70;99.90;;;;;;5095875;28;20478;-82
2021/08/01 09:01:46;;;;;;;2.13;1.90;;;25.70;99.90;;;;;;5090788;28;20858;-83
2021/08/01 09:04:12;;;;;;;2.17;2.00;;;25.60;99.90;;;;;;5085809;28;20482;-83
2021/08/01 09:06:39;;;;;;;1.97;1.80;;;25.60;99.90;;;;;;5080528;28;20479;-83
2021/08/01 09:09:06;;;;;;;1.70;1.60;;;25.70;99.90;;;;;;5075214;28;20891;-82
2021/08/01 09:11:32;;;;;;;1.90;1.80;;;25.80;99.90;;;;;;5078434;28;20877;-83
2021/08/01 09:13:59;;;;;;;2.30;2.10;;;25.90;99.90;;;;;;5095640;28;20553;-83
2021/08/01 09:16:42;;;;;;;1.90;1.80;;;26.00;99.90;;;;;;5093697;28;20553;-83
2021/08/01 09:19:25;;;;;;;2.20;1.77;;;26.20;99.90;;;;;;5082947;28;20522;-83
2021/08/01 09:21:53;;;;;;;2.23;2.07;;;26.30;99.90;;;;;;5083913;28;20803;-84
2021/08/01 09:24:19;;;;;;;3.13;1.97;;;26.30;99.90;;;;;;5079002;28;20534;-88
2021/08/01 09:26:47;;;;;;;4.03;1.80;;;26.50;99.90;;;;;;5073476;28;20530;-83
2021/08/01 09:29:15;;;;;;;2.70;2.10;;;26.70;99.90;;;;;;5071398;28;20447;-82
2021/08/01 09:31:43;;;;;;;3.47;2.30;;;26.80;99.90;;;;;;5067030;28;20931;-83
2021/08/01 09:34:25;;;;;;;2.73;2.53;;;26.80;99.90;;;;;;5073588;28;21001;-83
2021/08/01 09:37:02;;;;;;;2.10;2.00;;;26.80;99.90;;;;;;5072622;28;20546;-83
2021/08/01 09:39:29;;;;;;;2.20;2.00;;;26.90;99.90;;;;;;5073946;28;20529;-82
2021/08/01 09:42:03;;;;;;;2.50;2.10;;;26.90;99.90;;;;;;5071254;28;20523;-82
2021/08/01 09:44:30;;;;;;;3.17;2.10;;;27.00;99.90;;;;;;5073529;28;20530;-82
2021/08/01 09:46:58;;;;;;;2.30;2.10;;;27.10;99.90;;;;;;5072024;28;20935;-82
2021/08/01 09:49:26;;;;;;;4.63;3.90;;;27.20;99.90;;;;;;5078017;28;20531;-84
2021/08/01 09:51:54;;;;;;;4.20;3.90;;;27.40;99.90;;;;;;5074352;28;20442;-81
2021/08/01 09:54:24;;;;;;;3.23;2.97;;;27.50;99.90;;;;;;5077057;28;20861;-83
2021/08/01 09:56:55;;;;;;;2.43;2.10;;;27.70;99.90;;;;;;5073240;28;20845;-81
2021/08/01 09:59:24;;;;;;;2.80;2.10;;;27.80;99.90;;;;;;5073415;28;20954;-82
2021/08/01 10:01:53;;;;;;;2.23;1.90;;;27.90;99.90;;;;;;5073963;28;20439;-81
2021/08/01 10:04:26;;;;;;;3.20;2.07;;;27.90;99.90;;;;;;5073966;28;20806;-81
2021/08/01 10:07:06;;;;;;;1.93;1.83;;;28.00;99.90;;;;;;5073877;28;20527;-83
2021/08/01 10:09:34;;;;;;;2.30;2.13;;;28.10;99.90;;;;;;5073807;28;20463;-81
2021/08/01 10:12:01;;;;;;;2.30;2.10;;;28.20;99.90;;;;;;5073391;28;20992;-80
2021/08/01 10:14:29;;;;;;;2.90;2.30;;;28.40;99.90;;;;;;5073715;28;20447;-82
2021/08/01 10:16:57;;;;;;;2.30;2.10;;;28.60;99.90;;;;;;5073464;28;20546;-81
2021/08/01 10:19:24;;;;;;;3.17;2.30;;;28.80;99.90;;;;;;5073558;28;20950;-81
2021/08/01 10:21:55;;;;;;;2.30;2.10;;;28.60;99.90;;;;;;5073341;28;20526;-82
2021/08/01 10:24:24;;;;;;;4.17;3.80;;;28.40;99.90;;;;;;5073605;28;20465;-82
2021/08/01 10:26:54;;;;;;;5.20;4.80;;;28.30;99.90;;;;;;5073414;28;20534;-82
2021/08/01 10:29:30;;;;;;;3.00;2.80;;;28.30;99.90;;;;;;5073354;28;20482;-80
2021/08/01 10:32:01;;;;;;;2.37;2.20;;;28.30;99.90;;;;;;5073427;28;20534;-82
2021/08/01 10:34:38;;;;;;;2.97;2.00;;;28.20;99.90;;;;;;5073067;28;20500;-81
2021/08/01 10:37:07;;;;;;;2.03;1.93;;;28.00;99.90;;;;;;5057709;28;20463;-81
2021/08/01 10:39:36;;;;;;;3.90;2.20;;;28.00;99.90;;;;;;5072989;28;20447;-82
2021/08/01 10:42:08;;;;;;;2.37;2.20;;;28.00;99.90;;;;;;5073136;28;20870;-81
2021/08/01 10:44:35;;;;;;;2.87;2.30;;;28.10;99.90;;;;;;5072992;28;20439;-82
2021/08/01 10:47:06;;;;;;;2.30;2.13;;;28.10;99.90;;;;;;5072841;28;20448;-81
2021/08/01 10:49:40;;;;;;;2.37;2.17;;;28.10;99.90;;;;;;5083878;28;20539;-81
2021/08/01 10:52:09;;;;;;;2.40;2.20;;;28.20;99.90;;;;;;5072979;28;20543;-81
2021/08/01 10:54:36;;;;;;;3.20;2.73;;;28.20;99.90;;;;;;5070090;28;20444;-81
2021/08/01 10:57:15;;;;;;;4.20;2.90;;;28.30;99.90;;;;;;5072184;28;20822;-82
2021/08/01 11:00:12;;;;;;;5.40;5.03;;;28.20;99.90;;;;;;5072978;28;20750;-82
2021/08/01 11:02:39;;;;;;;3.03;1.90;;;28.20;99.90;;;;;;5010823;28;20487;-82
2021/08/01 11:05:35;;;;;;;2.37;2.27;;;28.20;99.90;;;;;;5058323;28;20463;-82
2021/08/01 11:08:03;;;;;;;2.57;1.90;;;28.20;99.90;;;;;;5072737;28;20447;-82
2021/08/01 11:10:30;;;;;;;2.07;1.97;;;28.20;99.90;;;;;;5072894;28;20550;-82
2021/08/01 11:12:58;;;;;;;2.50;2.30;;;28.20;99.90;;;;;;5083989;28;20467;-82
2021/08/01 11:15:43;;;;;;;3.63;2.20;;;28.30;99.90;;;;;;5072713;28;20538;-85
2021/08/01 11:18:09;;;;;;;2.90;1.90;;;28.30;99.90;;;;;;5071893;28;20556;-85
2021/08/01 11:20:52;;;;;;;2.50;1.97;;;28.40;99.90;;;;;;5072662;28;20482;-84
2021/08/01 11:23:22;;;;;;;2.53;2.33;;;28.50;99.90;;;;;;5073597;28;20444;-86
2021/08/01 11:26:11;;;;;;;2.00;1.90;;;28.50;99.90;;;;;;5072506;28;20985;-87
2021/08/01 11:28:43;;;;;;;2.83;2.20;;;28.40;99.90;;;;;;5072543;28;20475;-87
2021/08/01 11:31:22;;;;;;;3.30;2.40;;;28.30;99.90;;;;;;5072606;28;20986;-88
2021/08/01 11:33:51;;;;;;;2.07;1.93;;;28.10;99.90;;;;;;5072663;28;20447;-86
2021/08/01 11:36:24;;;;;;;2.30;2.10;;;27.80;99.90;;;;;;5072692;28;20574;-86
2021/08/01 11:39:06;;;;;;;2.07;1.83;;;27.60;99.90;;;;;;5072076;28;20566;-86
2021/08/01 11:41:35;;;;;;;2.13;1.93;;;27.50;99.90;;;;;;5070450;28;20537;-87
2021/08/01 11:44:04;;;;;;;4.30;2.00;;;27.50;99.90;;;;;;5064576;28;20444;-86
2021/08/01 11:47:16;;;;;;;3.20;2.47;;;27.50;99.90;;;;;;5072186;28;20451;-86
2021/08/01 11:49:49;;;;;;;2.40;2.30;;;27.60;99.90;;;;;;5067037;28;20934;-89
2021/08/01 11:52:28;;;;;;;2.43;2.00;;;27.80;99.90;;;;;;5076324;28;20447;-91
2021/08/01 11:54:55;;;;;;;2.00;1.90;;;28.10;99.90;;;;;;5076528;28;20485;-90
2021/08/01 11:57:28;;;;;;;2.40;1.60;;;28.40;99.90;;;;;;5076040;28;20482;-92
2021/08/01 11:59:55;;;;;;;3.60;1.90;;;28.60;99.90;;;;;;5075958;28;20447;-91
2021/08/01 12:02:22;;;;;;;1.67;1.57;;;28.60;99.90;;;;;;5076034;28;20479;-78
2021/08/01 12:04:58;;;;;;;1.67;1.57;;;28.70;99.90;;;;;;5076144;28;20538;-81
2021/08/01 12:07:42;;;;;;;2.33;1.70;;;28.80;99.90;;;;;;5076015;28;20451;-82
2021/08/01 12:10:20;;;;;;;2.53;1.90;;;28.60;99.90;;;;;;5075798;28;20541;-81
2021/08/01 12:12:51;;;;;;;2.20;1.90;;;28.70;99.90;;;;;;5075575;28;20454;-81
2021/08/01 12:15:19;;;;;;;1.80;1.70;;;28.70;99.90;;;;;;5075788;28;20435;-82
2021/08/01 12:17:46;;;;;;;5.83;1.90;;;28.70;99.90;;;;;;5075681;28;20524;-81
2021/08/01 12:20:14;;;;;;;2.03;1.80;;;28.70;99.60;;;;;;5075836;28;20447;-82
2021/08/01 12:22:46;;;;;;;2.10;1.90;;;28.70;99.90;;;;;;5075238;28;20946;-90
2021/08/01 12:25:13;;;;;;;1.87;1.77;;;28.80;99.90;;;;;;5075646;28;20471;-81
2021/08/01 12:27:42;;;;;;;3.40;3.10;;;28.80;99.20;;;;;;5075499;28;20454;-82
2021/08/01 12:30:16;;;;;;;3.70;3.40;;;28.60;99.40;;;;;;5073951;28;20446;-81
2021/08/01 12:32:44;;;;;;;3.13;2.13;;;28.50;99.40;;;;;;5079095;28;20439;-81
2021/08/01 12:35:11;;;;;;;2.20;1.93;;;28.50;99.80;;;;;;5081532;28;20478;-81
2021/08/01 12:37:46;;;;;;;1.90;1.80;;;28.50;99.60;;;;;;5083454;28;20470;-82
2021/08/01 12:40:16;;;;;;;2.00;1.90;;;28.60;99.60;;;;;;5076035;28;20476;-82
2021/08/01 12:42:54;;;;;;;1.60;1.50;;;28.70;99.20;;;;;;5074750;28;20475;-80
2021/08/01 12:45:22;;;;;;;1.83;1.73;;;28.80;99.30;;;;;;5061951;28;20478;-81
2021/08/01 12:47:49;;;;;;;2.23;1.97;;;29.00;99.40;;;;;;5074912;28;20455;-80
2021/08/01 12:50:17;;;;;;;2.20;2.00;;;29.10;98.90;;;;;;5075018;28;20443;-80
2021/08/01 12:52:45;;;;;;;3.53;2.47;;;29.10;97.80;;;;;;5075041;28;20455;-80
2021/08/01 12:55:12;;;;;;;5.93;5.53;;;29.10;98.40;;;;;;5075208;28;20492;-80
2021/08/01 12:58:06;;;;;;;3.73;3.43;;;29.10;97.40;;;;;;5074250;28;20816;-79